Terminal Aerodrome Forecast
Issued by NWS Melbourne, FL

Home | Current Version | Previous Version | Text Only | Print | Product List | Glossary On
Versions: 1 2 3 4 5 6 7 8 9 10 11 12 13 14 15 16
000
FTUS42 KMLB 240521
TAFDAB
TAF
KDAB 240521Z 2406/2506 21003KT P6SM SCT110 BKN250
     FM241400 22007KT P6SM SCT025 BKN200
     FM241800 21008KT P6SM VCTS SCT040CB BKN120
     FM250000 19005KT P6SM FEW060 SCT080 BKN200=

USA.gov is the U.S. government's official web portal to all federal, state and local government web resources and services.